Time;durP1;ratioP1;P1;durP2;ratioP2;P2;SDS_P1;SDS_P2;PMS_P1;PMS_P2;Temp;Humidity;BMP_temperature;BMP_pressure;BME280_temperature;BME280_humidity;BME280_pressure;Samples;Min_cycle;Max_cycle;Signal;HPM_P1;HPM_P2
2023/05/07 00:02:07;;;;;;;3.60;1.70;;;;;;;11.76;37.57;101033.73;105796;1260;65189;-69
2023/05/07 00:04:37;;;;;;;8.10;1.90;;;;;;;11.75;37.39;101035.55;105655;1259;60200;-69
2023/05/07 00:07:05;;;;;;;4.70;2.00;;;;;;;11.73;36.93;101039.59;106286;1253;59688;-68
2023/05/07 00:09:32;;;;;;;3.00;2.00;;;;;;;11.72;36.82;101040.77;105986;1254;66659;-68
2023/05/07 00:11:59;;;;;;;4.80;2.10;;;;;;;11.71;36.71;101041.31;105984;1256;59978;-69
2023/05/07 00:14:26;;;;;;;4.80;2.10;;;;;;;11.73;36.67;101039.27;106404;1252;66219;-67
2023/05/07 00:16:53;;;;;;;3.50;1.90;;;;;;;11.72;36.78;101041.97;106076;1258;61184;-69
2023/05/07 00:19:20;;;;;;;5.70;2.30;;;;;;;11.70;36.88;101039.46;105364;1260;59692;-69
2023/05/07 00:21:48;;;;;;;3.60;2.20;;;;;;;11.66;36.85;101038.70;105479;1259;66844;-68
2023/05/07 00:24:15;;;;;;;3.70;2.50;;;;;;;11.64;36.83;101036.92;105522;1261;61047;-69
2023/05/07 00:26:42;;;;;;;5.90;3.90;;;;;;;11.62;36.98;101036.91;105616;1258;66206;-67
2023/05/07 00:29:09;;;;;;;5.80;3.10;;;;;;;11.60;37.22;101041.27;105672;1259;59681;-69
2023/05/07 00:31:35;;;;;;;3.70;2.50;;;;;;;11.58;37.29;101038.95;105296;1254;59793;-71
2023/05/07 00:34:02;;;;;;;4.40;2.20;;;;;;;11.55;37.32;101040.71;105914;1254;67163;-69
2023/05/07 00:36:30;;;;;;;3.40;1.90;;;;;;;11.51;37.32;101042.08;106050;1254;61233;-68
2023/05/07 00:38:59;;;;;;;2.80;1.90;;;;;;;11.49;37.26;101041.38;105463;1254;66552;-70
2023/05/07 00:41:26;;;;;;;2.90;1.80;;;;;;;11.46;37.36;101045.09;105624;1257;59797;-71
2023/05/07 00:43:54;;;;;;;3.00;1.60;;;;;;;11.45;37.41;101045.54;105357;1260;59653;-69
2023/05/07 00:46:21;;;;;;;3.80;2.00;;;;;;;11.45;37.38;101047.31;105358;1260;66848;-70
2023/05/07 00:48:49;;;;;;;3.40;1.80;;;;;;;11.42;37.27;101041.49;105471;1262;62731;-69
2023/05/07 00:51:17;;;;;;;3.80;2.00;;;;;;;11.39;37.31;101041.38;105289;1261;65405;-71
2023/05/07 00:53:44;;;;;;;5.40;2.30;;;;;;;11.37;37.36;101041.15;105768;1254;59918;-68
2023/05/07 00:56:12;;;;;;;6.70;2.00;;;;;;;11.36;37.55;101041.59;105502;1254;59688;-69
2023/05/07 00:58:39;;;;;;;4.20;1.80;;;;;;;11.33;37.70;101040.40;105576;1260;66849;-70
2023/05/07 01:01:06;;;;;;;4.50;1.90;;;;;;;11.31;37.90;101038.27;105552;1259;59843;-69
2023/05/07 01:03:33;;;;;;;4.40;2.00;;;;;;;11.29;38.01;101037.50;105625;1254;66383;-68
2023/05/07 01:06:01;;;;;;;5.30;1.90;;;;;;;11.28;38.11;101041.27;105578;1254;59611;-68
2023/05/07 01:08:29;;;;;;;4.90;2.10;;;;;;;11.27;38.27;101039.62;105690;1254;59539;-69
2023/05/07 01:10:56;;;;;;;4.10;1.90;;;;;;;11.23;38.18;101046.45;105478;1254;65626;-68
2023/05/07 01:13:23;;;;;;;2.90;1.70;;;;;;;11.20;37.97;101045.23;105422;1254;60751;-69
2023/05/07 01:15:50;;;;;;;3.40;1.60;;;;;;;11.18;37.80;101045.51;105482;1257;66247;-69
2023/05/07 01:18:17;;;;;;;2.80;1.60;;;;;;;11.18;37.83;101049.03;105588;1260;59625;-69
2023/05/07 01:20:45;;;;;;;3.50;1.50;;;;;;;11.20;37.93;101054.61;105473;1260;59746;-71
2023/05/07 01:23:12;;;;;;;2.50;1.80;;;;;;;11.20;37.93;101051.95;105422;1259;66919;-68
2023/05/07 01:25:39;;;;;;;2.00;1.50;;;;;;;11.20;37.78;101061.10;105541;1260;60082;-69
2023/05/07 01:28:06;;;;;;;4.00;1.60;;;;;;;11.19;37.67;101060.77;105470;1254;65563;-69
2023/05/07 01:30:36;;;;;;;4.30;1.50;;;;;;;11.18;37.59;101056.77;105762;1254;60520;-70
2023/05/07 01:33:10;;;;;;;3.00;1.70;;;;;;;11.19;37.45;101058.67;105532;1261;60348;-69
2023/05/07 01:35:45;;;;;;;4.20;1.60;;;;;;;11.18;37.46;101054.52;105554;1259;67874;-70
2023/05/07 01:38:12;;;;;;;2.00;1.50;;;;;;;11.16;37.43;101053.78;105418;1262;60819;-68
2023/05/07 01:40:39;;;;;;;3.00;1.50;;;;;;;11.14;37.45;101052.14;105532;1254;65233;-68
2023/05/07 01:43:06;;;;;;;3.30;1.70;;;;;;;11.13;37.66;101052.05;105490;1257;60453;-72
2023/05/07 01:45:34;;;;;;;3.60;1.60;;;;;;;11.12;37.71;101052.13;105979;1255;60370;-69
2023/05/07 01:48:02;;;;;;;2.80;1.60;;;;;;;11.13;37.54;101054.16;105498;1254;67726;-69
2023/05/07 01:50:30;;;;;;;2.20;1.60;;;;;;;11.13;37.42;101055.40;105589;1254;60956;-70
2023/05/07 01:52:56;;;;;;;2.20;1.50;;;;;;;11.13;37.37;101053.50;105696;1254;66526;-69
2023/05/07 01:55:23;;;;;;;3.20;2.00;;;;;;;11.14;37.43;101055.36;105625;1257;60463;-69
2023/05/07 01:57:51;;;;;;;2.20;1.60;;;;;;;11.14;37.34;101053.72;105547;1255;60428;-71
2023/05/07 02:00:18;;;;;;;4.30;1.50;;;;;;;11.16;37.49;101055.92;105495;1254;67749;-68
2023/05/07 02:02:46;;;;;;;7.00;1.60;;;;;;;11.16;37.46;101058.73;106112;1254;61085;-69
2023/05/07 02:05:23;;;;;;;7.90;1.50;;;;;;;11.16;37.42;101063.85;105628;1254;66500;-68
2023/05/07 02:07:57;;;;;;;5.10;1.60;;;;;;;11.18;37.31;101058.06;105736;1257;62426;-68
2023/05/07 02:10:26;;;;;;;3.60;1.20;;;;;;;11.20;37.40;101056.53;105690;1255;60543;-69
2023/05/07 02:12:53;;;;;;;3.40;1.30;;;;;;;11.18;37.35;101063.29;105570;1254;66288;-71
2023/05/07 02:15:20;;;;;;;3.60;1.50;;;;;;;11.19;37.13;101059.23;105804;1258;60512;-69
2023/05/07 02:18:03;;;;;;;4.00;1.40;;;;;;;11.19;36.96;101062.39;105784;1258;66581;-70
2023/05/07 02:20:31;;;;;;;1.60;1.20;;;;;;;11.19;37.04;101066.27;106031;1255;60543;-71
2023/05/07 02:22:58;;;;;;;2.30;1.30;;;;;;;11.19;36.96;101066.80;105514;1255;60543;-71
2023/05/07 02:25:25;;;;;;;1.60;1.20;;;;;;;11.19;37.04;101066.27;105543;1259;67719;-69
2023/05/07 02:27:52;;;;;;;3.50;1.20;;;;;;;11.17;37.11;101066.40;105809;1254;60780;-69
2023/05/07 02:30:21;;;;;;;5.00;1.50;;;;;;;11.16;37.15;101072.63;105732;1255;66119;-69
2023/05/07 02:32:49;;;;;;;2.70;1.60;;;;;;;11.15;37.18;101074.52;105938;1255;60514;-68
2023/05/07 02:35:16;;;;;;;2.80;1.40;;;;;;;11.14;37.21;101078.05;106372;1254;61102;-70
2023/05/07 02:37:43;;;;;;;3.70;1.60;;;;;;;11.12;37.30;101082.30;105511;1260;67887;-68
2023/05/07 02:40:12;;;;;;;4.30;1.70;;;;;;;11.10;37.50;101082.77;105754;1254;61117;-69
2023/05/07 02:42:39;;;;;;;2.50;1.80;;;;;;;11.10;37.66;101081.91;105550;1254;66456;-70
2023/05/07 02:45:07;;;;;;;3.40;1.60;;;;;;;11.10;37.77;101083.98;105835;1254;60489;-69
2023/05/07 02:47:34;;;;;;;2.10;1.30;;;;;;;11.11;37.88;101088.02;106152;1258;60517;-69
2023/05/07 02:50:03;;;;;;;2.50;1.20;;;;;;;11.10;37.76;101090.52;105807;1254;66603;-71
2023/05/07 02:52:30;;;;;;;3.50;1.70;;;;;;;11.08;37.89;101090.45;106137;1258;60347;-69
2023/05/07 02:54:57;;;;;;;2.10;1.50;;;;;;;11.09;38.08;101095.89;106196;1253;66859;-68
2023/05/07 02:57:24;;;;;;;3.40;1.60;;;;;;;11.08;38.39;101095.73;105802;1254;60524;-70
2023/05/07 02:59:51;;;;;;;2.20;1.30;;;;;;;11.10;38.53;101093.86;105870;1253;60348;-70
2023/05/07 03:02:20;;;;;;;2.40;1.70;;;;;;;11.12;38.72;101095.48;105990;1254;67414;-69
2023/05/07 03:04:47;;;;;;;2.00;1.30;;;;;;;11.13;38.97;101094.70;105628;1259;61124;-70
2023/05/07 03:07:14;;;;;;;5.50;1.80;;;;;;;11.13;38.99;101095.93;105488;1258;66338;-69
2023/05/07 03:09:41;;;;;;;2.20;1.70;;;;;;;11.15;38.91;101099.70;105417;1254;60501;-68
2023/05/07 03:12:08;;;;;;;1.90;1.70;;;;;;;11.15;38.83;101105.14;105831;1256;60376;-70
2023/05/07 03:14:36;;;;;;;3.00;1.30;;;;;;;11.14;38.90;101103.79;105746;1259;67383;-70
2023/05/07 03:17:03;;;;;;;2.90;1.60;;;;;;;11.14;39.06;101102.02;105934;1254;60809;-68
2023/05/07 03:19:30;;;;;;;2.60;1.50;;;;;;;11.15;39.13;101103.92;105211;1255;66539;-68
2023/05/07 03:21:57;;;;;;;3.20;1.60;;;;;;;11.15;39.10;101107.77;105979;1254;60528;-68
2023/05/07 03:24:24;;;;;;;3.30;1.50;;;;;;;11.16;39.17;101104.70;105763;1257;60397;-68
2023/05/07 03:26:52;;;;;;;2.40;1.50;;;;;;;11.15;39.03;101104.61;105526;1260;67590;-70
2023/05/07 03:29:19;;;;;;;3.60;1.50;;;;;;;11.14;39.05;101106.80;105565;1253;60489;-68
2023/05/07 03:31:46;;;;;;;2.30;1.50;;;;;;;11.13;38.96;101112.90;105539;1257;66373;-71
2023/05/07 03:34:13;;;;;;;2.70;1.50;;;;;;;11.14;39.07;101115.29;105946;1255;60529;-73
2023/05/07 03:36:40;;;;;;;4.80;1.50;;;;;;;11.16;38.92;101116.02;105672;1255;60403;-70
2023/05/07 03:39:08;;;;;;;2.80;1.40;;;;;;;11.16;38.86;101122.00;105299;1260;67651;-69
2023/05/07 03:41:38;;;;;;;3.00;1.60;;;;;;;11.17;39.07;101124.36;105514;1254;60992;-69
2023/05/07 03:44:05;;;;;;;2.70;1.40;;;;;;;11.18;38.94;101122.89;105296;1254;65476;-69
2023/05/07 03:46:33;;;;;;;2.20;1.50;;;;;;;11.18;38.83;101123.59;105134;1257;60447;-70
2023/05/07 03:49:00;;;;;;;2.90;1.60;;;;;;;11.22;38.93;101128.30;105320;1262;60591;-70
2023/05/07 03:51:27;;;;;;;3.00;1.60;;;;;;;11.23;39.11;101129.45;106134;1254;66611;-72
2023/05/07 03:53:56;;;;;;;2.60;1.60;;;;;;;11.27;39.22;101135.71;105507;1262;60738;-68
2023/05/07 03:56:26;;;;;;;2.50;1.50;;;;;;;11.29;39.28;101137.48;105937;1258;65162;-68
2023/05/07 03:58:54;;;;;;;3.60;1.80;;;;;;;11.30;39.37;101142.73;106168;1258;60428;-69
2023/05/07 04:01:21;;;;;;;2.30;1.60;;;;;;;11.33;39.69;101144.98;105746;1260;60428;-69
2023/05/07 04:03:48;;;;;;;3.20;1.70;;;;;;;11.37;39.81;101149.25;105953;1260;67363;-70
2023/05/07 04:06:17;;;;;;;3.10;1.90;;;;;;;11.40;39.66;101153.31;105781;1254;60592;-70
2023/05/07 04:08:45;;;;;;;4.60;1.90;;;;;;;11.42;39.73;101156.82;105692;1259;66619;-68
2023/05/07 04:11:12;;;;;;;2.60;1.80;;;;;;;11.46;39.76;101160.78;105301;1259;61098;-68
2023/05/07 04:13:39;;;;;;;2.40;1.70;;;;;;;11.51;39.95;101163.30;105918;1258;60623;-72
2023/05/07 04:16:07;;;;;;;3.20;1.80;;;;;;;11.57;40.00;101168.16;106061;1255;67410;-69
2023/05/07 04:18:36;;;;;;;2.50;1.80;;;;;;;11.61;39.79;101167.18;105564;1254;62762;-70
2023/05/07 04:21:03;;;;;;;4.40;1.80;;;;;;;11.62;39.23;101173.06;105673;1257;66442;-69
2023/05/07 04:23:30;;;;;;;4.80;1.90;;;;;;;11.61;38.90;101173.11;106041;1254;60530;-71
2023/05/07 04:26:00;;;;;;;3.40;2.00;;;;;;;11.63;38.96;101167.85;105330;1257;60437;-68
2023/05/07 04:28:39;;;;;;;2.30;1.70;;;;;;;11.69;39.04;101170.30;105641;1259;67447;-68
2023/05/07 04:31:06;;;;;;;2.60;1.70;;;;;;;11.74;39.09;101175.69;105295;1262;60415;-72
2023/05/07 04:33:34;;;;;;;3.70;1.60;;;;;;;11.79;38.86;101175.36;106254;1253;66683;-70
2023/05/07 04:36:02;;;;;;;3.50;1.70;;;;;;;11.84;38.56;101179.44;105664;1254;60520;-69
2023/05/07 04:38:31;;;;;;;2.80;1.70;;;;;;;11.87;38.30;101184.38;105332;1259;60377;-69
2023/05/07 04:41:05;;;;;;;2.30;1.70;;;;;;;11.88;37.83;101187.42;105758;1257;66018;-68
2023/05/07 04:43:33;;;;;;;4.30;1.50;;;;;;;11.92;37.75;101189.09;105367;1262;60470;-70
2023/05/07 04:46:00;;;;;;;2.20;1.70;;;;;;;11.96;37.68;101191.08;106468;1253;66419;-71
2023/05/07 04:48:28;;;;;;;2.70;1.40;;;;;;;11.99;37.70;101190.73;106004;1262;60434;-68
2023/05/07 04:50:57;;;;;;;2.30;1.40;;;;;;;12.03;37.42;101184.07;106227;1253;60434;-69
2023/05/07 04:53:24;;;;;;;3.90;1.60;;;;;;;12.07;37.37;101182.94;105963;1260;66703;-70
2023/05/07 04:55:59;;;;;;;1.80;1.30;;;;;;;12.13;37.48;101182.69;105367;1260;61011;-70
2023/05/07 04:58:31;;;;;;;1.30;1.20;;;;;;;12.18;37.07;101182.98;105850;1254;65527;-69
2023/05/07 05:01:00;;;;;;;2.50;1.30;;;;;;;12.19;36.27;101181.48;105403;1263;60353;-69
2023/05/07 05:03:27;;;;;;;3.10;1.20;;;;;;;12.20;35.98;101178.40;105754;1260;60315;-68
2023/05/07 05:05:54;;;;;;;2.30;1.30;;;;;;;12.18;35.71;101172.92;105679;1264;67658;-71
2023/05/07 05:08:22;;;;;;;3.40;1.50;;;;;;;12.18;36.13;101173.27;105700;1259;60681;-71
2023/05/07 05:10:49;;;;;;;2.50;1.20;;;;;;;12.24;36.08;101171.62;105611;1253;66273;-69
2023/05/07 05:13:17;;;;;;;3.40;1.30;;;;;;;12.32;35.98;101169.61;105720;1254;60652;-69
2023/05/07 05:15:45;;;;;;;2.60;1.20;;;;;;;12.39;36.02;101175.23;105881;1259;60498;-70
2023/05/07 05:18:13;;;;;;;3.70;1.20;;;;;;;12.50;36.16;101173.15;105745;1267;67678;-69
2023/05/07 05:20:40;;;;;;;2.90;1.40;;;;;;;12.64;35.90;101173.20;105023;1261;60526;-70
2023/05/07 05:23:07;;;;;;;3.70;1.10;;;;;;;12.72;35.19;101171.20;105361;1261;67528;-70
2023/05/07 05:25:34;;;;;;;3.60;1.20;;;;;;;12.74;34.77;101169.42;105602;1267;60578;-69
2023/05/07 05:28:02;;;;;;;1.90;1.00;;;;;;;12.79;34.32;101171.15;105679;1254;59325;-69
2023/05/07 05:30:30;;;;;;;4.00;1.10;;;;;;;12.84;34.11;101177.27;105650;1259;67431;-70
2023/05/07 05:32:57;;;;;;;1.20;0.80;;;;;;;12.92;33.93;101177.23;105403;1254;60536;-69
2023/05/07 05:35:25;;;;;;;2.40;0.80;;;;;;;12.99;33.49;101178.98;105440;1259;65906;-69
2023/05/07 05:37:52;;;;;;;3.50;1.10;;;;;;;13.03;33.15;101175.16;105633;1259;60562;-70
2023/05/07 05:40:20;;;;;;;2.30;0.90;;;;;;;13.05;32.40;101171.34;105560;1254;59574;-70
2023/05/07 05:42:47;;;;;;;2.30;0.90;;;;;;;13.05;31.81;101172.02;105596;1254;66718;-69
2023/05/07 05:45:15;;;;;;;4.00;1.00;;;;;;;13.06;31.11;101171.95;106070;1254;60962;-70
2023/05/07 05:47:44;;;;;;;3.40;0.90;;;;;;;13.06;31.18;101170.83;105430;1253;65517;-70
2023/05/07 05:50:12;;;;;;;2.70;1.00;;;;;;;13.13;31.41;101167.82;105249;1257;60450;-70
2023/05/07 05:52:40;;;;;;;2.10;1.10;;;;;;;13.21;31.51;101165.11;105793;1254;60407;-70
2023/05/07 05:55:08;;;;;;;1.80;1.10;;;;;;;13.29;31.75;101164.54;105610;1260;68031;-69
2023/05/07 05:57:36;;;;;;;1.60;0.90;;;;;;;13.38;31.97;101160.60;105700;1260;60523;-74
2023/05/07 06:00:04;;;;;;;3.30;0.90;;;;;;;13.47;31.84;101157.45;105054;1255;66576;-72
2023/05/07 06:02:32;;;;;;;1.30;1.10;;;;;;;13.54;31.69;101152.09;105437;1254;60462;-69
2023/05/07 06:05:00;;;;;;;2.70;1.10;;;;;;;13.62;31.62;101149.67;105502;1260;62017;-71
2023/05/07 06:07:27;;;;;;;2.70;1.10;;;;;;;13.69;31.02;101143.98;105635;1255;66390;-71
2023/05/07 06:09:55;;;;;;;3.10;0.90;;;;;;;13.71;30.72;101145.42;105940;1254;62285;-71
2023/05/07 06:12:22;;;;;;;2.40;1.10;;;;;;;13.75;30.68;101142.80;106004;1254;66661;-71
2023/05/07 06:14:49;;;;;;;4.80;1.00;;;;;;;13.85;31.05;101139.70;106282;1253;61004;-74
2023/05/07 06:17:17;;;;;;;4.10;1.10;;;;;;;14.00;30.45;101131.56;105275;1259;60476;-69
2023/05/07 06:19:48;;;;;;;1.60;1.10;;;;;;;14.10;30.07;101125.64;105745;1257;67593;-69
2023/05/07 06:22:17;;;;;;;2.60;0.90;;;;;;;14.04;30.28;101118.85;105200;1252;60444;-68
2023/05/07 06:24:44;;;;;;;2.60;0.90;;;;;;;13.95;29.73;101117.29;105350;1260;65423;-69
2023/05/07 06:27:11;;;;;;;1.80;0.80;;;;;;;13.90;29.85;101115.39;105104;1260;60446;-71
2023/05/07 06:29:39;;;;;;;1.10;0.70;;;;;;;13.91;29.90;101106.98;105723;1260;60543;-68
2023/05/07 06:32:12;;;;;;;1.20;0.90;;;;;;;13.87;29.35;101109.05;105796;1254;67683;-68
2023/05/07 06:34:41;;;;;;;1.50;0.70;;;;;;;13.79;29.21;101110.08;105938;1257;60548;-68
2023/05/07 06:37:08;;;;;;;2.60;0.90;;;;;;;13.70;29.33;101107.05;105066;1254;66633;-70
2023/05/07 06:39:56;;;;;;;2.30;0.90;;;;;;;13.64;29.49;101111.45;105046;1254;60557;-69
2023/05/07 06:42:26;;;;;;;2.20;0.80;;;;;;;13.65;29.53;101104.83;105514;1259;60492;-69
2023/05/07 06:44:57;;;;;;;1.30;0.90;;;;;;;13.78;29.75;101108.42;105581;1260;67588;-68
2023/05/07 06:47:24;;;;;;;1.70;0.70;;;;;;;13.95;30.02;101111.61;105396;1261;60744;-70
2023/05/07 06:49:52;;;;;;;4.10;0.90;;;;;;;14.10;29.31;101116.02;105209;1255;66320;-69
2023/05/07 06:52:21;;;;;;;3.60;0.90;;;;;;;14.14;28.28;101118.73;105492;1255;60488;-68
2023/05/07 06:54:49;;;;;;;2.20;0.70;;;;;;;14.15;28.19;101123.08;105440;1260;61715;-69
2023/05/07 06:57:17;;;;;;;1.80;0.80;;;;;;;14.13;27.99;101124.86;105475;1260;66576;-70
2023/05/07 06:59:45;;;;;;;4.20;0.80;;;;;;;14.09;27.95;101123.01;105592;1260;61182;-70
2023/05/07 07:02:12;;;;;;;1.10;0.70;;;;;;;14.09;28.13;101125.01;106169;1258;66043;-68
2023/05/07 07:04:39;;;;;;;1.10;0.70;;;;;;;14.06;28.10;101130.52;105749;1258;60468;-69
2023/05/07 07:07:08;;;;;;;2.00;0.70;;;;;;;14.05;28.08;101132.00;105826;1254;60492;-71
2023/05/07 07:09:36;;;;;;;1.20;0.70;;;;;;;14.03;27.74;101130.23;105609;1256;67722;-73
2023/05/07 07:12:03;;;;;;;2.80;0.70;;;;;;;14.02;27.77;101122.70;105501;1254;60874;-71
2023/05/07 07:14:30;;;;;;;1.10;0.70;;;;;;;14.01;28.03;101117.09;105739;1257;65640;-73
2023/05/07 07:16:57;;;;;;;2.20;0.80;;;;;;;14.03;28.12;101119.45;105765;1262;60450;-74
2023/05/07 07:19:26;;;;;;;2.00;0.80;;;;;;;14.03;28.34;101112.50;105768;1260;60364;-70
2023/05/07 07:21:54;;;;;;;2.80;0.90;;;;;;;14.08;28.41;101101.32;106672;1254;66464;-71
2023/05/07 07:24:21;;;;;;;2.90;1.00;;;;;;;14.14;28.23;101094.99;105462;1257;60630;-70
2023/05/07 07:26:51;;;;;;;1.50;1.00;;;;;;;14.17;28.12;101090.63;105673;1257;66208;-71
2023/05/07 07:29:19;;;;;;;1.50;0.80;;;;;;;14.19;28.06;101086.04;105940;1259;60544;-73
2023/05/07 07:31:46;;;;;;;2.00;0.80;;;;;;;14.23;28.27;101088.05;105543;1260;59234;-68
2023/05/07 07:34:13;;;;;;;1.90;0.70;;;;;;;14.28;28.16;101088.87;108117;1253;66255;-69
2023/05/07 07:36:40;;;;;;;1.70;0.70;;;;;;;14.37;28.36;101093.59;105717;1260;60463;-70
2023/05/07 07:39:14;;;;;;;0.90;0.70;;;;;;;14.50;28.42;101097.09;107036;1254;66637;-69
2023/05/07 07:41:41;;;;;;;2.00;0.70;;;;;;;14.68;28.60;101103.73;105442;1261;60505;-68
2023/05/07 07:44:08;;;;;;;3.80;0.60;;;;;;;14.86;28.15;101100.23;105316;1260;60315;-69
2023/05/07 07:46:36;;;;;;;4.00;0.70;;;;;;;14.96;27.94;101099.61;105434;1254;66614;-69
2023/05/07 07:49:03;;;;;;;1.60;0.70;;;;;;;15.06;27.48;101100.47;105416;1255;60687;-72
2023/05/07 07:51:31;;;;;;;2.10;0.70;;;;;;;15.11;27.17;101094.33;106026;1253;65388;-73
2023/05/07 07:53:59;;;;;;;1.10;0.60;;;;;;;15.16;27.09;101089.65;105679;1254;60334;-68
2023/05/07 07:56:26;;;;;;;1.80;0.80;;;;;;;15.24;27.33;101085.81;105744;1259;60380;-69
2023/05/07 07:58:53;;;;;;;1.60;0.70;;;;;;;15.30;26.59;101076.92;105361;1255;66689;-69
2023/05/07 08:01:20;;;;;;;1.30;0.70;;;;;;;15.24;26.34;101067.01;105403;1254;61308;-70
2023/05/07 08:03:47;;;;;;;4.50;0.70;;;;;;;15.15;26.61;101064.17;105463;1254;66597;-69
2023/05/07 08:06:15;;;;;;;1.90;0.60;;;;;;;15.16;27.02;101064.14;105535;1254;60968;-69
2023/05/07 08:08:42;;;;;;;7.40;0.90;;;;;;;15.21;27.04;101067.95;106210;1254;60587;-69
2023/05/07 08:11:10;;;;;;;3.50;1.10;;;;;;;15.24;27.17;101065.36;107132;1254;67373;-68
2023/05/07 08:13:37;;;;;;;2.50;0.90;;;;;;;15.26;27.12;101066.22;105529;1252;60821;-68
2023/05/07 08:16:04;;;;;;;1.90;0.60;;;;;;;15.28;26.95;101070.65;105336;1254;66538;-71
2023/05/07 08:18:32;;;;;;;2.00;0.60;;;;;;;15.31;26.95;101064.23;105238;1258;60571;-68
2023/05/07 08:21:01;;;;;;;1.80;0.90;;;;;;;15.39;27.10;101064.03;105405;1254;60546;-66
2023/05/07 08:23:28;;;;;;;1.50;0.70;;;;;;;15.47;27.02;101058.31;105249;1261;67705;-69
2023/05/07 08:25:55;;;;;;;4.50;1.10;;;;;;;15.53;27.03;101056.59;105389;1254;60896;-69
2023/05/07 08:28:24;;;;;;;1.40;0.80;;;;;;;15.60;27.29;101058.08;105550;1254;66738;-69
2023/05/07 08:30:51;;;;;;;4.10;0.90;;;;;;;15.71;27.05;101053.35;105586;1254;60469;-69
2023/05/07 08:33:19;;;;;;;3.20;0.70;;;;;;;15.81;26.96;101053.68;105506;1259;60364;-69
2023/05/07 08:35:46;;;;;;;3.50;0.80;;;;;;;15.90;26.92;101050.39;105387;1260;67303;-68
2023/05/07 08:38:13;;;;;;;2.00;0.70;;;;;;;16.01;26.72;101049.08;105446;1254;60685;-71
2023/05/07 08:40:41;;;;;;;3.00;0.80;;;;;;;16.13;26.48;101043.71;105375;1260;66498;-69
2023/05/07 08:43:13;;;;;;;2.00;0.80;;;;;;;16.21;26.09;101037.08;105513;1254;60474;-69
2023/05/07 08:45:40;;;;;;;2.20;0.70;;;;;;;16.25;25.82;101037.89;105299;1254;60670;-69
2023/05/07 08:48:10;;;;;;;2.00;0.60;;;;;;;16.33;25.38;101034.57;105518;1254;66323;-69
2023/05/07 08:50:37;;;;;;;1.90;0.70;;;;;;;16.40;25.21;101034.38;105422;1264;60450;-68
2023/05/07 08:53:05;;;;;;;1.40;0.70;;;;;;;16.50;25.00;101032.42;105522;1253;66611;-71
2023/05/07 08:55:33;;;;;;;2.20;0.70;;;;;;;16.63;24.68;101033.89;105530;1257;60600;-67
2023/05/07 08:58:01;;;;;;;1.40;0.80;;;;;;;16.68;24.08;101035.84;105468;1255;60637;-71
2023/05/07 09:00:28;;;;;;;2.00;0.80;;;;;;;16.66;24.00;101034.77;105520;1255;67867;-70
2023/05/07 09:02:55;;;;;;;2.60;0.70;;;;;;;16.66;24.27;101031.56;105534;1254;60325;-70
2023/05/07 09:05:23;;;;;;;2.50;0.90;;;;;;;16.70;24.24;101034.85;106109;1257;66502;-71
2023/05/07 09:07:50;;;;;;;4.80;0.90;;;;;;;16.70;23.92;101031.06;105607;1254;60543;-68
2023/05/07 09:10:21;;;;;;;1.10;0.50;;;;;;;16.73;24.20;101022.96;105441;1254;62854;-69
2023/05/07 09:12:49;;;;;;;1.30;0.70;;;;;;;16.74;24.02;101025.57;105393;1261;67800;-69
2023/05/07 09:15:18;;;;;;;1.90;0.80;;;;;;;16.69;23.61;101021.77;105714;1254;60459;-69
2023/05/07 09:17:45;;;;;;;0.80;0.70;;;;;;;16.65;24.12;101021.91;105667;1254;66489;-71
2023/05/07 09:20:13;;;;;;;4.60;0.80;;;;;;;16.69;24.60;101021.95;105581;1259;60536;-68
2023/05/07 09:22:44;;;;;;;1.20;0.60;;;;;;;16.73;24.35;101022.23;105564;1259;60408;-69
2023/05/07 09:25:15;;;;;;;3.40;0.80;;;;;;;16.78;23.97;101025.48;105678;1260;67600;-72
2023/05/07 09:27:43;;;;;;;2.50;0.80;;;;;;;16.87;23.88;101025.73;105492;1259;60469;-68
2023/05/07 09:30:11;;;;;;;2.00;0.60;;;;;;;16.91;24.13;101022.34;105541;1260;65469;-69
2023/05/07 09:32:38;;;;;;;2.50;0.70;;;;;;;16.98;24.76;101018.96;105588;1261;60427;-69
2023/05/07 09:35:15;;;;;;;3.20;0.90;;;;;;;17.08;24.12;101013.16;105337;1258;302374;-69
2023/05/07 09:37:43;;;;;;;4.00;0.90;;;;;;;17.11;23.68;101010.08;105322;1254;67614;-68
2023/05/07 09:40:21;;;;;;;1.70;0.70;;;;;;;17.19;24.29;101009.61;105511;1254;61104;-70
2023/05/07 09:42:49;;;;;;;2.30;0.60;;;;;;;17.32;24.29;101007.27;105468;1254;65419;-69
2023/05/07 09:45:26;;;;;;;3.70;0.90;;;;;;;17.42;24.26;101002.89;105591;1259;60338;-69
2023/05/07 09:47:56;;;;;;;1.40;0.70;;;;;;;17.55;24.68;101001.59;105349;1256;60504;-69
2023/05/07 09:50:29;;;;;;;2.40;0.80;;;;;;;17.71;24.69;100999.55;105511;1259;67543;-69
2023/05/07 09:52:56;;;;;;;1.90;0.70;;;;;;;17.82;24.30;100996.09;105469;1254;61149;-70
2023/05/07 09:55:24;;;;;;;2.80;0.80;;;;;;;17.87;24.09;100989.89;105385;1260;67000;-71
2023/05/07 09:57:52;;;;;;;5.50;0.90;;;;;;;17.97;24.08;100982.69;105768;1254;60551;-73
2023/05/07 10:00:21;;;;;;;1.10;0.80;;;;;;;18.17;24.15;100984.91;105889;1254;60430;-73
2023/05/07 10:02:49;;;;;;;2.70;0.80;;;;;;;18.39;24.32;100982.27;105472;1254;67559;-73
2023/05/07 10:05:20;;;;;;;3.40;0.80;;;;;;;18.57;24.08;100982.26;105493;1260;60678;-74
2023/05/07 10:07:48;;;;;;;3.50;0.70;;;;;;;18.67;23.75;100982.30;105426;1262;65409;-73
2023/05/07 10:10:15;;;;;;;1.70;0.60;;;;;;;18.86;24.00;100982.73;105513;1254;60616;-72
2023/05/07 10:12:43;;;;;;;0.90;0.70;;;;;;;19.10;23.73;100983.46;105568;1255;60325;-71
2023/05/07 10:15:18;;;;;;;4.80;0.60;;;;;;;19.13;22.54;100986.73;105512;1254;68231;-74
2023/05/07 10:17:47;;;;;;;3.10;0.60;;;;;;;19.09;22.20;100988.31;105312;1260;60518;-71
2023/05/07 10:20:15;;;;;;;1.30;0.60;;;;;;;19.12;22.59;100989.33;105447;1254;66471;-72
2023/05/07 10:22:44;;;;;;;1.50;0.80;;;;;;;19.19;22.33;100990.22;105688;1254;60526;-71
2023/05/07 10:25:23;;;;;;;1.40;0.70;;;;;;;19.22;22.07;100984.15;105451;1254;60341;-72
2023/05/07 10:27:50;;;;;;;1.40;0.70;;;;;;;19.31;22.26;100981.95;105375;1255;66860;-71
2023/05/07 10:30:40;;;;;;;1.20;0.60;;;;;;;19.40;21.87;100977.39;105399;1259;60465;-73
2023/05/07 10:33:09;;;;;;;1.70;0.80;;;;;;;19.50;21.69;100977.25;105390;1254;66565;-73
2023/05/07 10:35:44;;;;;;;2.70;0.70;;;;;;;19.61;22.03;100982.47;105589;1259;60543;-73
2023/05/07 10:38:11;;;;;;;1.70;0.90;;;;;;;19.83;22.14;100973.81;105402;1261;60437;-72
2023/05/07 10:40:39;;;;;;;3.50;0.80;;;;;;;20.00;21.49;100973.41;105461;1256;67759;-72
2023/05/07 10:43:07;;;;;;;4.10;1.00;;;;;;;19.95;21.05;100977.84;105960;1253;61160;-73
2023/05/07 10:45:43;;;;;;;2.50;0.70;;;;;;;19.78;21.22;100971.53;105488;1254;65536;-71
2023/05/07 10:48:15;;;;;;;4.00;0.80;;;;;;;19.79;21.50;100972.10;105681;1254;61516;-73
2023/05/07 10:51:20;;;;;;;1.20;0.80;;;;;;;19.92;21.45;100970.30;105494;1254;60492;-70
2023/05/07 10:54:14;;;;;;;1.50;0.80;;;;;;;19.98;21.10;100969.81;105849;1259;66459;-74
2023/05/07 10:56:50;;;;;;;3.70;0.80;;;;;;;20.08;21.13;100974.79;104833;1254;60991;-73
2023/05/07 10:59:27;;;;;;;1.40;0.80;;;;;;;20.15;20.55;100967.09;105385;1254;66574;-74
2023/05/07 11:02:02;;;;;;;2.80;1.00;;;;;;;20.21;20.35;100964.61;105563;1253;60792;-74
2023/05/07 11:05:22;;;;;;;3.20;0.90;;;;;;;20.53;20.64;100963.93;105400;1257;60349;-74
2023/05/07 11:08:08;;;;;;;3.90;0.70;;;;;;;20.85;20.88;100965.30;105953;1257;67595;-72
2023/05/07 11:10:52;;;;;;;1.30;0.80;;;;;;;21.16;20.75;100961.02;105983;1255;60491;-72
2023/05/07 11:13:47;;;;;;;2.40;0.90;;;;;;;21.45;20.45;100962.71;105796;1260;66610;-74
2023/05/07 11:16:37;;;;;;;3.00;0.70;;;;;;;21.45;20.53;100967.16;105951;1257;60459;-73
2023/05/07 11:19:50;;;;;;;3.60;1.00;;;;;;;21.44;20.36;100960.61;105952;1253;60454;-71
2023/05/07 11:22:32;;;;;;;4.80;1.10;;;;;;;21.62;20.14;100956.21;105616;1259;68078;-74
2023/05/07 11:25:35;;;;;;;4.70;1.30;;;;;;;21.83;20.27;100954.10;105354;1254;60978;-74
2023/05/07 11:28:10;;;;;;;2.00;1.20;;;;;;;22.10;20.46;100953.85;105566;1260;66551;-74